sensor_id;sensor_type;location;lat;lon;timestamp;pressure;altitude;pressure_sealevel;temperature;humidity
3748;BME280;1889;50.058;8.688;2023-02-18T00:02:06;100981.08;;;15.40;69.42
3748;BME280;1889;50.058;8.688;2023-02-18T00:04:35;100979.40;;;14.97;71.10
3748;BME280;1889;50.058;8.688;2023-02-18T00:07:04;100986.92;;;14.96;71.54
3748;BME280;1889;50.058;8.688;2023-02-18T00:09:34;100986.81;;;15.01;71.65
3748;BME280;1889;50.058;8.688;2023-02-18T00:12:03;100991.64;;;15.03;71.85
3748;BME280;1889;50.058;8.688;2023-02-18T00:14:32;100995.64;;;15.01;72.19
3748;BME280;1889;50.058;8.688;2023-02-18T00:17:02;100994.56;;;15.10;71.97
3748;BME280;1889;50.058;8.688;2023-02-18T00:19:31;100995.39;;;15.13;72.24
3748;BME280;1889;50.058;8.688;2023-02-18T00:22:00;100991.78;;;14.97;73.45
3748;BME280;1889;50.058;8.688;2023-02-18T00:24:30;101003.91;;;14.67;75.23
3748;BME280;1889;50.058;8.688;2023-02-18T00:26:59;100988.84;;;14.46;76.45
3748;BME280;1889;50.058;8.688;2023-02-18T00:29:28;100991.42;;;14.51;76.74
3748;BME280;1889;50.058;8.688;2023-02-18T00:31:58;100985.11;;;14.57;76.44
3748;BME280;1889;50.058;8.688;2023-02-18T00:34:27;100979.59;;;14.45;76.73
3748;BME280;1889;50.058;8.688;2023-02-18T00:36:56;100984.43;;;14.22;78.01
3748;BME280;1889;50.058;8.688;2023-02-18T00:39:26;100987.95;;;14.47;76.68
3748;BME280;1889;50.058;8.688;2023-02-18T00:41:55;100991.58;;;14.64;75.75
3748;BME280;1889;50.058;8.688;2023-02-18T00:44:24;100997.83;;;14.82;75.02
3748;BME280;1889;50.058;8.688;2023-02-18T00:46:54;100990.22;;;14.86;74.69
3748;BME280;1889;50.058;8.688;2023-02-18T00:49:23;100983.16;;;14.66;75.31
3748;BME280;1889;50.058;8.688;2023-02-18T00:51:52;100980.20;;;14.80;75.01
3748;BME280;1889;50.058;8.688;2023-02-18T00:54:22;100972.68;;;14.81;74.88
3748;BME280;1889;50.058;8.688;2023-02-18T00:56:51;100979.48;;;14.93;74.42
3748;BME280;1889;50.058;8.688;2023-02-18T00:59:20;100981.13;;;14.77;74.68
3748;BME280;1889;50.058;8.688;2023-02-18T01:01:49;100986.64;;;14.89;74.61
3748;BME280;1889;50.058;8.688;2023-02-18T01:04:19;100985.31;;;15.08;73.89
3748;BME280;1889;50.058;8.688;2023-02-18T01:06:48;100990.53;;;15.13;73.58
3748;BME280;1889;50.058;8.688;2023-02-18T01:09:18;100987.73;;;15.19;73.13
3748;BME280;1889;50.058;8.688;2023-02-18T01:11:47;100980.52;;;15.06;73.36
3748;BME280;1889;50.058;8.688;2023-02-18T01:14:16;100989.35;;;15.07;73.17
3748;BME280;1889;50.058;8.688;2023-02-18T01:16:46;100977.95;;;15.02;72.98
3748;BME280;1889;50.058;8.688;2023-02-18T01:19:15;100981.63;;;14.96;73.03
3748;BME280;1889;50.058;8.688;2023-02-18T01:21:44;100978.23;;;14.89;72.89
3748;BME280;1889;50.058;8.688;2023-02-18T01:24:14;100982.46;;;14.77;73.05
3748;BME280;1889;50.058;8.688;2023-02-18T01:26:43;100988.11;;;14.83;73.03
3748;BME280;1889;50.058;8.688;2023-02-18T01:29:12;100976.75;;;14.97;72.59
3748;BME280;1889;50.058;8.688;2023-02-18T01:31:41;100980.73;;;14.54;73.45
3748;BME280;1889;50.058;8.688;2023-02-18T01:34:11;100981.38;;;14.67;73.50
3748;BME280;1889;50.058;8.688;2023-02-18T01:36:40;100979.54;;;14.91;72.45
3748;BME280;1889;50.058;8.688;2023-02-18T01:39:09;100975.11;;;14.92;71.97
3748;BME280;1889;50.058;8.688;2023-02-18T01:41:39;100968.56;;;14.87;71.64
3748;BME280;1889;50.058;8.688;2023-02-18T01:44:20;100964.59;;;14.87;72.09
3748;BME280;1889;50.058;8.688;2023-02-18T01:46:49;100965.97;;;15.05;71.13
3748;BME280;1889;50.058;8.688;2023-02-18T01:49:31;100972.23;;;15.01;70.65
3748;BME280;1889;50.058;8.688;2023-02-18T01:52:00;100968.94;;;14.91;70.86
3748;BME280;1889;50.058;8.688;2023-02-18T01:54:32;100945.33;;;15.00;70.11
3748;BME280;1889;50.058;8.688;2023-02-18T01:57:14;100954.19;;;14.99;70.36
3748;BME280;1889;50.058;8.688;2023-02-18T01:59:43;100947.13;;;14.98;70.15
3748;BME280;1889;50.058;8.688;2023-02-18T02:02:17;100936.44;;;15.01;69.83
3748;BME280;1889;50.058;8.688;2023-02-18T02:04:47;100946.09;;;15.05;68.68
3748;BME280;1889;50.058;8.688;2023-02-18T02:07:18;100946.09;;;15.05;68.68
3748;BME280;1889;50.058;8.688;2023-02-18T02:09:50;100937.25;;;15.04;68.81
3748;BME280;1889;50.058;8.688;2023-02-18T02:12:50;100942.48;;;14.88;68.16
3748;BME280;1889;50.058;8.688;2023-02-18T02:15:31;100945.08;;;14.70;69.14
3748;BME280;1889;50.058;8.688;2023-02-18T02:18:17;100937.48;;;14.94;68.31
3748;BME280;1889;50.058;8.688;2023-02-18T02:21:11;100936.16;;;14.94;68.36
3748;BME280;1889;50.058;8.688;2023-02-18T02:23:56;100936.16;;;14.94;68.36
3748;BME280;1889;50.058;8.688;2023-02-18T02:32:31;100922.16;;;14.68;68.78
3748;BME280;1889;50.058;8.688;2023-02-18T02:35:11;100919.00;;;14.71;68.32
3748;BME280;1889;50.058;8.688;2023-02-18T02:40:34;100931.83;;;14.70;68.11
3748;BME280;1889;50.058;8.688;2023-02-18T02:45:58;100921.25;;;14.69;67.97
3748;BME280;1889;50.058;8.688;2023-02-18T02:48:41;100910.03;;;14.77;67.36
3748;BME280;1889;50.058;8.688;2023-02-18T02:51:23;100910.03;;;14.77;67.36
3748;BME280;1889;50.058;8.688;2023-02-18T02:53:53;100902.93;;;14.79;67.14
3748;BME280;1889;50.058;8.688;2023-02-18T02:56:24;100902.93;;;14.79;67.14
3748;BME280;1889;50.058;8.688;2023-02-18T02:59:02;100901.72;;;14.54;68.13
3748;BME280;1889;50.058;8.688;2023-02-18T03:02:03;100901.95;;;14.64;67.93
3748;BME280;1889;50.058;8.688;2023-02-18T03:04:49;100902.00;;;14.61;68.34
3748;BME280;1889;50.058;8.688;2023-02-18T03:12:55;100899.09;;;14.30;69.60
3748;BME280;1889;50.058;8.688;2023-02-18T03:15:38;100899.66;;;14.47;68.88
3748;BME280;1889;50.058;8.688;2023-02-18T03:21:05;100909.22;;;14.54;68.68
3748;BME280;1889;50.058;8.688;2023-02-18T03:23:52;100899.16;;;14.50;68.34
3748;BME280;1889;50.058;8.688;2023-02-18T03:26:13;100903.44;;;14.56;68.20
3748;BME280;1889;50.058;8.688;2023-02-18T03:28:45;100903.44;;;14.56;68.20
3748;BME280;1889;50.058;8.688;2023-02-18T03:31:19;100887.49;;;14.35;68.77
3748;BME280;1889;50.058;8.688;2023-02-18T03:33:56;100886.57;;;14.38;68.62
3748;BME280;1889;50.058;8.688;2023-02-18T03:36:22;100885.84;;;14.52;68.15
3748;BME280;1889;50.058;8.688;2023-02-18T03:39:02;100890.95;;;14.42;68.32
3748;BME280;1889;50.058;8.688;2023-02-18T03:41:27;100892.79;;;14.59;67.51
3748;BME280;1889;50.058;8.688;2023-02-18T03:44:01;100892.79;;;14.59;67.51
3748;BME280;1889;50.058;8.688;2023-02-18T03:46:31;100899.33;;;14.62;67.39
3748;BME280;1889;50.058;8.688;2023-02-18T03:49:01;100905.33;;;14.51;67.75
3748;BME280;1889;50.058;8.688;2023-02-18T03:51:31;100905.33;;;14.51;67.75
3748;BME280;1889;50.058;8.688;2023-02-18T03:54:00;100900.69;;;14.40;67.97
3748;BME280;1889;50.058;8.688;2023-02-18T03:56:30;100902.59;;;14.54;68.04
3748;BME280;1889;50.058;8.688;2023-02-18T03:59:01;100889.66;;;14.60;68.21
3748;BME280;1889;50.058;8.688;2023-02-18T04:01:30;100886.61;;;14.59;67.63
3748;BME280;1889;50.058;8.688;2023-02-18T04:04:01;100886.61;;;14.59;67.63
3748;BME280;1889;50.058;8.688;2023-02-18T04:06:31;100889.34;;;14.54;68.30
3748;BME280;1889;50.058;8.688;2023-02-18T04:09:00;100889.59;;;14.20;69.43
3748;BME280;1889;50.058;8.688;2023-02-18T04:11:31;100883.05;;;14.17;70.26
3748;BME280;1889;50.058;8.688;2023-02-18T04:14:01;100883.05;;;14.17;70.26
3748;BME280;1889;50.058;8.688;2023-02-18T04:16:30;100878.55;;;14.20;69.78
3748;BME280;1889;50.058;8.688;2023-02-18T04:18:59;100877.28;;;14.41;68.95
3748;BME280;1889;50.058;8.688;2023-02-18T04:21:29;100873.60;;;14.26;69.04
3748;BME280;1889;50.058;8.688;2023-02-18T04:23:58;100875.74;;;14.28;68.98
3748;BME280;1889;50.058;8.688;2023-02-18T04:26:28;100869.99;;;14.28;68.75
3748;BME280;1889;50.058;8.688;2023-02-18T04:28:58;100878.00;;;14.27;68.61
3748;BME280;1889;50.058;8.688;2023-02-18T04:31:27;100878.00;;;14.27;68.61
3748;BME280;1889;50.058;8.688;2023-02-18T04:33:56;100869.92;;;14.33;68.46
3748;BME280;1889;50.058;8.688;2023-02-18T04:36:26;100883.20;;;14.52;67.70
3748;BME280;1889;50.058;8.688;2023-02-18T04:38:55;100883.20;;;14.52;67.70
3748;BME280;1889;50.058;8.688;2023-02-18T04:41:25;100885.94;;;14.27;69.37
3748;BME280;1889;50.058;8.688;2023-02-18T04:43:54;100879.00;;;14.20;70.97
3748;BME280;1889;50.058;8.688;2023-02-18T04:46:23;100879.00;;;14.20;70.97
3748;BME280;1889;50.058;8.688;2023-02-18T04:48:53;100884.24;;;14.23;71.27
3748;BME280;1889;50.058;8.688;2023-02-18T04:51:22;100884.11;;;14.29;71.20
3748;BME280;1889;50.058;8.688;2023-02-18T04:53:51;100884.98;;;14.29;71.66
3748;BME280;1889;50.058;8.688;2023-02-18T04:56:21;100885.83;;;14.31;72.18
3748;BME280;1889;50.058;8.688;2023-02-18T04:58:50;100888.78;;;14.40;72.23
3748;BME280;1889;50.058;8.688;2023-02-18T05:01:19;100879.40;;;14.22;73.53
3748;BME280;1889;50.058;8.688;2023-02-18T05:03:48;100882.02;;;14.24;73.57
3748;BME280;1889;50.058;8.688;2023-02-18T05:06:18;100873.77;;;14.18;74.13
3748;BME280;1889;50.058;8.688;2023-02-18T05:08:47;100873.77;;;14.18;74.13
3748;BME280;1889;50.058;8.688;2023-02-18T05:11:16;100869.73;;;14.20;74.20
3748;BME280;1889;50.058;8.688;2023-02-18T05:13:46;100869.73;;;14.20;74.20
3748;BME280;1889;50.058;8.688;2023-02-18T05:16:15;100871.11;;;13.72;76.25
3748;BME280;1889;50.058;8.688;2023-02-18T05:18:44;100864.80;;;13.79;76.68
3748;BME280;1889;50.058;8.688;2023-02-18T05:21:14;100859.16;;;13.97;75.37
3748;BME280;1889;50.058;8.688;2023-02-18T05:23:43;100856.77;;;14.07;74.21
3748;BME280;1889;50.058;8.688;2023-02-18T05:26:12;100856.77;;;14.07;74.21
3748;BME280;1889;50.058;8.688;2023-02-18T05:28:41;100860.61;;;13.91;75.11
3748;BME280;1889;50.058;8.688;2023-02-18T05:31:11;100851.83;;;13.89;75.04
3748;BME280;1889;50.058;8.688;2023-02-18T05:33:40;100844.41;;;13.86;74.88
3748;BME280;1889;50.058;8.688;2023-02-18T05:36:10;100828.95;;;13.63;75.83
3748;BME280;1889;50.058;8.688;2023-02-18T05:38:39;100828.95;;;13.63;75.83
3748;BME280;1889;50.058;8.688;2023-02-18T05:41:08;100828.44;;;13.68;75.31
3748;BME280;1889;50.058;8.688;2023-02-18T05:43:38;100824.09;;;13.64;75.27
3748;BME280;1889;50.058;8.688;2023-02-18T05:46:25;100828.59;;;13.60;74.90
3748;BME280;1889;50.058;8.688;2023-02-18T05:48:54;100824.09;;;13.64;74.28
3748;BME280;1889;50.058;8.688;2023-02-18T05:51:23;100824.09;;;13.64;74.28
3748;BME280;1889;50.058;8.688;2023-02-18T05:53:53;100824.05;;;13.67;74.30
3748;BME280;1889;50.058;8.688;2023-02-18T05:56:22;100830.83;;;13.58;73.92
3748;BME280;1889;50.058;8.688;2023-02-18T05:58:52;100816.86;;;13.73;73.37
3748;BME280;1889;50.058;8.688;2023-02-18T06:01:21;100822.17;;;13.72;73.03
3748;BME280;1889;50.058;8.688;2023-02-18T06:03:50;100811.41;;;13.81;72.40
3748;BME280;1889;50.058;8.688;2023-02-18T06:06:20;100813.16;;;13.82;71.82
3748;BME280;1889;50.058;8.688;2023-02-18T06:08:49;100813.16;;;13.82;71.82
3748;BME280;1889;50.058;8.688;2023-02-18T06:11:18;100808.14;;;13.91;70.78
3748;BME280;1889;50.058;8.688;2023-02-18T06:13:47;100797.36;;;13.55;70.66
3748;BME280;1889;50.058;8.688;2023-02-18T06:16:17;100803.09;;;13.55;70.85
3748;BME280;1889;50.058;8.688;2023-02-18T06:18:46;100787.73;;;13.75;70.17
3748;BME280;1889;50.058;8.688;2023-02-18T06:21:15;100799.33;;;13.90;69.74
3748;BME280;1889;50.058;8.688;2023-02-18T06:23:45;100804.16;;;13.70;69.06
3748;BME280;1889;50.058;8.688;2023-02-18T06:26:14;100811.86;;;13.58;68.82
3748;BME280;1889;50.058;8.688;2023-02-18T06:28:43;100798.86;;;13.70;67.76
3748;BME280;1889;50.058;8.688;2023-02-18T06:31:13;100798.86;;;13.70;67.76
3748;BME280;1889;50.058;8.688;2023-02-18T06:33:43;100813.91;;;13.66;67.11
3748;BME280;1889;50.058;8.688;2023-02-18T06:36:12;100813.47;;;13.67;66.65
3748;BME280;1889;50.058;8.688;2023-02-18T06:38:43;100811.86;;;13.58;65.90
3748;BME280;1889;50.058;8.688;2023-02-18T06:41:13;100808.96;;;13.48;66.46
3748;BME280;1889;50.058;8.688;2023-02-18T06:43:42;100805.98;;;13.43;65.92
3748;BME280;1889;50.058;8.688;2023-02-18T06:46:12;100807.49;;;13.56;65.41
3748;BME280;1889;50.058;8.688;2023-02-18T06:48:41;100816.32;;;13.55;64.79
3748;BME280;1889;50.058;8.688;2023-02-18T06:51:10;100806.84;;;13.45;64.53
3748;BME280;1889;50.058;8.688;2023-02-18T06:53:39;100812.73;;;13.59;64.44
3748;BME280;1889;50.058;8.688;2023-02-18T06:56:09;100805.10;;;13.66;64.38
3748;BME280;1889;50.058;8.688;2023-02-18T06:58:39;100797.06;;;13.48;63.81
3748;BME280;1889;50.058;8.688;2023-02-18T07:01:08;100802.05;;;13.63;63.31
3748;BME280;1889;50.058;8.688;2023-02-18T07:03:37;100795.01;;;13.40;63.18
3748;BME280;1889;50.058;8.688;2023-02-18T07:06:07;100788.76;;;13.46;63.08
3748;BME280;1889;50.058;8.688;2023-02-18T07:08:36;100786.56;;;13.45;62.60
3748;BME280;1889;50.058;8.688;2023-02-18T07:11:06;100792.39;;;13.38;62.39
3748;BME280;1889;50.058;8.688;2023-02-18T07:13:36;100790.27;;;13.35;62.52
3748;BME280;1889;50.058;8.688;2023-02-18T07:16:05;100788.72;;;13.22;62.37
3748;BME280;1889;50.058;8.688;2023-02-18T07:18:34;100776.30;;;13.28;62.47
3748;BME280;1889;50.058;8.688;2023-02-18T07:21:04;100777.35;;;13.42;62.00
3748;BME280;1889;50.058;8.688;2023-02-18T07:23:35;100787.31;;;13.52;61.73
3748;BME280;1889;50.058;8.688;2023-02-18T07:26:10;100778.41;;;13.32;61.86
3748;BME280;1889;50.058;8.688;2023-02-18T07:28:40;100785.73;;;13.42;61.01
3748;BME280;1889;50.058;8.688;2023-02-18T07:31:09;100779.84;;;13.50;61.29
3748;BME280;1889;50.058;8.688;2023-02-18T07:33:39;100775.11;;;13.45;60.41
3748;BME280;1889;50.058;8.688;2023-02-18T07:36:08;100813.61;;;13.35;60.32
3748;BME280;1889;50.058;8.688;2023-02-18T07:38:37;100784.59;;;13.55;59.51
3748;BME280;1889;50.058;8.688;2023-02-18T07:41:14;100777.88;;;13.61;59.29
3748;BME280;1889;50.058;8.688;2023-02-18T07:43:42;100777.15;;;13.75;59.30
3748;BME280;1889;50.058;8.688;2023-02-18T07:46:11;100800.08;;;13.74;58.27
3748;BME280;1889;50.058;8.688;2023-02-18T07:48:40;100796.77;;;13.63;58.77
3748;BME280;1889;50.058;8.688;2023-02-18T07:51:11;100796.02;;;13.79;58.36
3748;BME280;1889;50.058;8.688;2023-02-18T07:53:41;100796.59;;;13.72;58.34
3748;BME280;1889;50.058;8.688;2023-02-18T07:56:10;100787.26;;;13.77;58.26
3748;BME280;1889;50.058;8.688;2023-02-18T07:58:40;100784.34;;;13.89;58.17
3748;BME280;1889;50.058;8.688;2023-02-18T08:01:11;100790.91;;;13.92;58.03
3748;BME280;1889;50.058;8.688;2023-02-18T08:03:43;100802.41;;;13.69;57.30
3748;BME280;1889;50.058;8.688;2023-02-18T08:06:29;100795.61;;;13.54;57.51
3748;BME280;1889;50.058;8.688;2023-02-18T08:08:56;100779.27;;;13.79;57.45
3748;BME280;1889;50.058;8.688;2023-02-18T08:11:25;100775.86;;;13.51;57.97
3748;BME280;1889;50.058;8.688;2023-02-18T08:13:55;100771.72;;;13.60;57.46
3748;BME280;1889;50.058;8.688;2023-02-18T08:16:25;100760.61;;;13.64;57.39
3748;BME280;1889;50.058;8.688;2023-02-18T08:18:54;100766.27;;;13.68;57.44
3748;BME280;1889;50.058;8.688;2023-02-18T08:21:25;100774.53;;;13.51;57.05
3748;BME280;1889;50.058;8.688;2023-02-18T08:23:56;100753.95;;;13.45;57.71
3748;BME280;1889;50.058;8.688;2023-02-18T08:26:26;100772.46;;;13.67;57.16
3748;BME280;1889;50.058;8.688;2023-02-18T08:28:55;100770.27;;;13.66;57.02
3748;BME280;1889;50.058;8.688;2023-02-18T08:31:27;100768.65;;;13.59;56.82
3748;BME280;1889;50.058;8.688;2023-02-18T08:33:58;100768.42;;;13.48;57.10
3748;BME280;1889;50.058;8.688;2023-02-18T08:36:28;100772.53;;;13.40;57.29
3748;BME280;1889;50.058;8.688;2023-02-18T08:38:57;100786.13;;;13.44;57.29
3748;BME280;1889;50.058;8.688;2023-02-18T08:41:28;100788.31;;;13.68;56.57
3748;BME280;1889;50.058;8.688;2023-02-18T08:43:58;100794.05;;;13.68;57.06
3748;BME280;1889;50.058;8.688;2023-02-18T08:46:27;100803.66;;;13.72;56.57
3748;BME280;1889;50.058;8.688;2023-02-18T08:48:57;100807.45;;;13.81;56.47
3748;BME280;1889;50.058;8.688;2023-02-18T08:51:26;100788.83;;;13.63;56.18
3748;BME280;1889;50.058;8.688;2023-02-18T08:53:55;100816.45;;;13.49;56.52
3748;BME280;1889;50.058;8.688;2023-02-18T08:56:25;100800.80;;;13.83;56.05
3748;BME280;1889;50.058;8.688;2023-02-18T08:58:55;100805.08;;;13.67;55.82
3748;BME280;1889;50.058;8.688;2023-02-18T09:01:24;100802.80;;;13.94;55.37
3748;BME280;1889;50.058;8.688;2023-02-18T09:03:53;100798.27;;;13.78;55.19
3748;BME280;1889;50.058;8.688;2023-02-18T09:06:23;100785.27;;;14.09;54.98
3748;BME280;1889;50.058;8.688;2023-02-18T09:08:52;100790.35;;;13.97;54.91
3748;BME280;1889;50.058;8.688;2023-02-18T09:11:22;100804.94;;;13.96;54.54
3748;BME280;1889;50.058;8.688;2023-02-18T09:13:51;100806.49;;;14.06;54.48
3748;BME280;1889;50.058;8.688;2023-02-18T09:16:20;100794.08;;;13.87;54.65
3748;BME280;1889;50.058;8.688;2023-02-18T09:18:50;100795.20;;;14.19;54.46
3748;BME280;1889;50.058;8.688;2023-02-18T09:21:20;100794.45;;;14.33;53.78
3748;BME280;1889;50.058;8.688;2023-02-18T09:23:50;100802.11;;;14.26;53.93
3748;BME280;1889;50.058;8.688;2023-02-18T09:26:21;100799.99;;;14.21;54.08
3748;BME280;1889;50.058;8.688;2023-02-18T09:28:55;100799.94;;;14.24;54.17
3748;BME280;1889;50.058;8.688;2023-02-18T09:31:26;100803.14;;;14.38;53.82
3748;BME280;1889;50.058;8.688;2023-02-18T09:34:01;100804.70;;;14.49;53.64
3748;BME280;1889;50.058;8.688;2023-02-18T09:36:31;100803.34;;;14.51;53.71
3748;BME280;1889;50.058;8.688;2023-02-18T09:39:00;100797.29;;;14.44;53.89
3748;BME280;1889;50.058;8.688;2023-02-18T09:41:44;100797.17;;;14.28;54.33
3748;BME280;1889;50.058;8.688;2023-02-18T09:44:26;100798.33;;;14.36;54.04
3748;BME280;1889;50.058;8.688;2023-02-18T09:49:36;100785.52;;;14.38;54.05
3748;BME280;1889;50.058;8.688;2023-02-18T09:52:21;100775.63;;;14.26;53.86
3748;BME280;1889;50.058;8.688;2023-02-18T09:54:51;100786.84;;;14.18;53.70
3748;BME280;1889;50.058;8.688;2023-02-18T10:00:16;100803.56;;;13.99;54.59
3748;BME280;1889;50.058;8.688;2023-02-18T10:03:30;100803.56;;;13.99;54.59
3748;BME280;1889;50.058;8.688;2023-02-18T10:05:20;100807.13;;;14.19;53.84
3748;BME280;1889;50.058;8.688;2023-02-18T10:07:53;100807.13;;;14.19;53.84
3748;BME280;1889;50.058;8.688;2023-02-18T10:10:43;100813.16;;;14.03;54.16
3748;BME280;1889;50.058;8.688;2023-02-18T10:13:22;100810.04;;;14.05;54.09
3748;BME280;1889;50.058;8.688;2023-02-18T10:15:46;100811.94;;;13.78;54.75
3748;BME280;1889;50.058;8.688;2023-02-18T10:18:27;100804.41;;;14.01;54.20
3748;BME280;1889;50.058;8.688;2023-02-18T10:21:10;100807.73;;;13.88;54.93
3748;BME280;1889;50.058;8.688;2023-02-18T10:23:32;100802.26;;;13.97;54.50
3748;BME280;1889;50.058;8.688;2023-02-18T10:26:03;100802.26;;;13.97;54.50
3748;BME280;1889;50.058;8.688;2023-02-18T10:28:34;100806.34;;;13.93;54.68
3748;BME280;1889;50.058;8.688;2023-02-18T10:31:09;100787.17;;;14.02;54.75
3748;BME280;1889;50.058;8.688;2023-02-18T10:36:41;100785.71;;;14.28;53.87
3748;BME280;1889;50.058;8.688;2023-02-18T10:39:32;100793.03;;;14.36;53.38
3748;BME280;1889;50.058;8.688;2023-02-18T10:42:10;100793.03;;;14.36;53.38
3748;BME280;1889;50.058;8.688;2023-02-18T10:44:53;100792.39;;;14.26;53.52
3748;BME280;1889;50.058;8.688;2023-02-18T10:47:27;100792.39;;;14.26;53.52
3748;BME280;1889;50.058;8.688;2023-02-18T10:50:29;100799.05;;;13.82;53.90
3748;BME280;1889;50.058;8.688;2023-02-18T10:53:07;100782.62;;;13.66;54.08
3748;BME280;1889;50.058;8.688;2023-02-18T10:55:40;100782.06;;;13.71;54.66
3748;BME280;1889;50.058;8.688;2023-02-18T10:58:31;100782.06;;;13.71;54.66
3748;BME280;1889;50.058;8.688;2023-02-18T11:01:03;100796.72;;;13.66;55.07
3748;BME280;1889;50.058;8.688;2023-02-18T11:03:46;100806.72;;;13.51;55.14
3748;BME280;1889;50.058;8.688;2023-02-18T11:06:30;100806.72;;;13.51;55.14
3748;BME280;1889;50.058;8.688;2023-02-18T11:09:00;100795.38;;;13.89;54.73
3748;BME280;1889;50.058;8.688;2023-02-18T11:11:37;100791.96;;;14.04;54.00
3748;BME280;1889;50.058;8.688;2023-02-18T11:14:04;100791.96;;;14.04;54.00
3748;BME280;1889;50.058;8.688;2023-02-18T11:16:39;100787.17;;;14.02;53.85
3748;BME280;1889;50.058;8.688;2023-02-18T11:19:37;100787.17;;;14.02;53.85
3748;BME280;1889;50.058;8.688;2023-02-18T11:22:15;100789.59;;;13.92;53.85
3748;BME280;1889;50.058;8.688;2023-02-18T11:24:45;100782.70;;;14.04;53.64
3748;BME280;1889;50.058;8.688;2023-02-18T11:27:30;100773.21;;;14.15;53.51
3748;BME280;1889;50.058;8.688;2023-02-18T11:32:58;100773.16;;;14.18;53.48
3748;BME280;1889;50.058;8.688;2023-02-18T11:35:31;100779.80;;;14.17;53.58
3748;BME280;1889;50.058;8.688;2023-02-18T11:38:03;100761.19;;;14.20;53.45
3748;BME280;1889;50.058;8.688;2023-02-18T11:40:35;100761.19;;;14.20;53.45
3748;BME280;1889;50.058;8.688;2023-02-18T11:43:18;100771.61;;;13.65;54.95
3748;BME280;1889;50.058;8.688;2023-02-18T11:45:48;100771.61;;;13.65;54.95
3748;BME280;1889;50.058;8.688;2023-02-18T11:48:22;100755.50;;;14.19;53.79
3748;BME280;1889;50.058;8.688;2023-02-18T11:50:52;100749.41;;;14.13;53.62
3748;BME280;1889;50.058;8.688;2023-02-18T11:53:36;100749.41;;;14.13;53.62
3748;BME280;1889;50.058;8.688;2023-02-18T11:56:15;100747.19;;;14.14;53.44
3748;BME280;1889;50.058;8.688;2023-02-18T11:58:40;100743.56;;;14.39;53.10
3748;BME280;1889;50.058;8.688;2023-02-18T12:01:24;100743.56;;;14.39;53.10
3748;BME280;1889;50.058;8.688;2023-02-18T12:06:48;100723.93;;;13.89;53.92
3748;BME280;1889;50.058;8.688;2023-02-18T12:12:10;100722.55;;;14.11;53.80
3748;BME280;1889;50.058;8.688;2023-02-18T12:14:38;100714.91;;;14.18;53.49
3748;BME280;1889;50.058;8.688;2023-02-18T12:20:50;100705.75;;;13.94;54.53
3748;BME280;1889;50.058;8.688;2023-02-18T12:22:44;100708.31;;;13.97;54.58
3748;BME280;1889;50.058;8.688;2023-02-18T12:31:15;100716.86;;;13.70;55.60
3748;BME280;1889;50.058;8.688;2023-02-18T12:36:46;100704.67;;;13.82;55.41
3748;BME280;1889;50.058;8.688;2023-02-18T12:42:17;100697.38;;;14.32;54.22
3748;BME280;1889;50.058;8.688;2023-02-18T12:50:30;100702.64;;;14.14;54.09
3748;BME280;1889;50.058;8.688;2023-02-18T12:56:46;100709.02;;;14.25;54.43
3748;BME280;1889;50.058;8.688;2023-02-18T13:01:48;100708.63;;;14.43;53.49
3748;BME280;1889;50.058;8.688;2023-02-18T13:04:26;100708.63;;;14.43;53.49
3748;BME280;1889;50.058;8.688;2023-02-18T13:12:53;100697.97;;;14.62;54.25
3748;BME280;1889;50.058;8.688;2023-02-18T13:15:24;100705.49;;;14.43;54.63
3748;BME280;1889;50.058;8.688;2023-02-18T13:17:56;100717.98;;;14.37;56.09
3748;BME280;1889;50.058;8.688;2023-02-18T13:20:42;100710.76;;;14.45;56.22
3748;BME280;1889;50.058;8.688;2023-02-18T13:23:15;100710.76;;;14.45;56.22
3748;BME280;1889;50.058;8.688;2023-02-18T13:25:47;100712.66;;;14.40;57.65
3748;BME280;1889;50.058;8.688;2023-02-18T13:28:20;100712.66;;;14.40;57.65
3748;BME280;1889;50.058;8.688;2023-02-18T13:31:07;100717.47;;;14.42;57.60
3748;BME280;1889;50.058;8.688;2023-02-18T13:36:32;100690.52;;;14.23;58.66
3748;BME280;1889;50.058;8.688;2023-02-18T13:39:16;100690.52;;;14.23;58.66
3748;BME280;1889;50.058;8.688;2023-02-18T13:41:43;100711.33;;;14.40;57.48
3748;BME280;1889;50.058;8.688;2023-02-18T13:46:58;100695.50;;;14.35;57.44
3748;BME280;1889;50.058;8.688;2023-02-18T13:49:33;100695.50;;;14.35;57.44
3748;BME280;1889;50.058;8.688;2023-02-18T13:52:04;100699.48;;;14.35;57.67
3748;BME280;1889;50.058;8.688;2023-02-18T13:54:42;100701.09;;;14.04;58.87
3748;BME280;1889;50.058;8.688;2023-02-18T13:57:21;100703.48;;;14.16;58.97
3748;BME280;1889;50.058;8.688;2023-02-18T13:59:58;100700.05;;;14.30;58.42
3748;BME280;1889;50.058;8.688;2023-02-18T14:02:34;100698.84;;;14.45;58.25
3748;BME280;1889;50.058;8.688;2023-02-18T14:07:44;100702.56;;;13.98;59.58
3748;BME280;1889;50.058;8.688;2023-02-18T14:13:00;100714.97;;;14.15;59.33
3748;BME280;1889;50.058;8.688;2023-02-18T14:20:46;100710.28;;;14.08;60.53
3748;BME280;1889;50.058;8.688;2023-02-18T14:25:54;100712.00;;;13.90;62.59
3748;BME280;1889;50.058;8.688;2023-02-18T14:34:07;100714.22;;;13.70;63.12
3748;BME280;1889;50.058;8.688;2023-02-18T14:39:50;100712.13;;;13.63;63.92
3748;BME280;1889;50.058;8.688;2023-02-18T14:45:26;100704.62;;;14.04;62.68
3748;BME280;1889;50.058;8.688;2023-02-18T14:48:11;100701.46;;;14.08;62.78
3748;BME280;1889;50.058;8.688;2023-02-18T14:50:40;100696.56;;;14.10;62.72
3748;BME280;1889;50.058;8.688;2023-02-18T14:53:23;100693.85;;;14.31;61.80
3748;BME280;1889;50.058;8.688;2023-02-18T14:56:02;100688.20;;;14.27;61.70
3748;BME280;1889;50.058;8.688;2023-02-18T14:58:29;100701.06;;;14.05;61.76
3748;BME280;1889;50.058;8.688;2023-02-18T15:01:12;100694.70;;;14.14;62.01
3748;BME280;1889;50.058;8.688;2023-02-18T15:03:39;100691.84;;;14.23;61.34
3748;BME280;1889;50.058;8.688;2023-02-18T15:06:35;100691.78;;;14.26;60.98
3748;BME280;1889;50.058;8.688;2023-02-18T15:09:20;100691.92;;;14.39;60.42
3748;BME280;1889;50.058;8.688;2023-02-18T15:12:13;100691.92;;;14.39;60.42
3748;BME280;1889;50.058;8.688;2023-02-18T15:14:36;100689.90;;;14.50;60.08
3748;BME280;1889;50.058;8.688;2023-02-18T15:17:11;100689.28;;;14.39;59.75
3748;BME280;1889;50.058;8.688;2023-02-18T15:19:40;100700.62;;;14.44;60.10